Green Road, Kentucky
Current Conditions -  °F | °C
As of 4:53 PM on Thursday 20 Nov 2014 (Local Time) from KLOZ Reporting Station
Clear Clear  
Wind Chill: 34°   Ceiling: Unl
Heat Index: 41°   Visibility: 10mi
Dew Point: 15°   Wind: 12mph
Humidity: 35%   Direction: 270°W
Pressure: 30.14"   Gusts: NA
Location:  36.97°N, 83.83°W
Report Text: KLOZ 202153Z AUTO 27010KT 10SM CLR 05/M09 A3014 RMK AO2 SLP212 T00501094
Loading
Personal Weather Stations






























Interactive Weather Map New forecast layout! Learn more

10-Day Weather Forecast

Advertisements
Track Severe Weather on mobile